Pittsfield, New Hampshire
Current Conditions -  °F | °C
As of 6:51 AM on Thursday 29 Jan 2015 (Local Time) from KCON Reporting Station
Clear Clear  
Wind Chill: -6°   Ceiling: Unl
Heat Index: -6°   Visibility: 10mi
Dew Point: -12°   Wind: 0mph
Humidity: 75%   Direction: NA
Pressure: 30.3"   Gusts: NA
Location:  43.31°N, 71.32°W
Report Text: KCON 291151Z AUTO 00000KT 10SM CLR M21/M24 A3030 RMK AO2 SLP269 I6000 T12111244 11172 21233 53007
Loading
Personal Weather Stations






























Interactive Weather Map New forecast layout! Learn more

10-Day Weather Forecast

Advertisements
Track Severe Weather on mobile